KAKO/AKO METAR and TAF weather

Enter ICAO airport designator
Station Type Date Time Source
KAKO METAR 2019/07/15 19:53 UTC NOAA

KAKO 151953Z AUTO 00000KT 10SM FEW080 32/13 A3007 RMK AO2 SLP113 T03220133


Station Type Date Time Source
KAKO Decoded METAR 2019/07/15 19:53 UTC NOAA

COLORADO PLAINS REGIONAL, CO, United States (KAKO) 40-10N 103-13W 1421M
Jul 15, 2019 - 03:53 PM EDT / 2019.07.15 1953 UTC
Wind: Calm:0
Visibility: 10 mile(s):0
Sky conditions: mostly clear
Temperature: 90.0 F (32.2 C)
Dew Point: 55.9 F (13.3 C)
Relative Humidity: 31%
Pressure (altimeter): 30.07 in. Hg (1018 hPa)
ob: KAKO 151953Z AUTO 00000KT 10SM FEW080 32/13 A3007 RMK AO2 SLP113 T03220133
cycle: 20

Station Type Date Time Source
KAKO TAF UTC NOAA

Error!

Example: see airport list